Time;durP1;ratioP1;P1;durP2;ratioP2;P2;SDS_P1;SDS_P2;PMS_P1;PMS_P2;Temp;Humidity;BMP_temperature;BMP_pressure;BME280_temperature;BME280_humidity;BME280_pressure;Samples;Min_cycle;Max_cycle;Signal;HPM_P1;HPM_P2
2021/01/02 00:00:19;;;;;;;26.48;16.52;;;2.10;83.50;;;;;;4975532;28;20054;-83
2021/01/02 00:03:04;;;;;;;30.00;17.10;;;2.10;83.20;;;;;;4975716;28;20023;-84
2021/01/02 00:05:44;;;;;;;28.30;16.58;;;2.00;83.30;;;;;;4975536;28;20483;-73
2021/01/02 00:08:19;;;;;;;31.45;17.00;;;2.00;84.30;;;;;;4973932;28;20054;-83
2021/01/02 00:10:44;;;;;;;29.20;17.02;;;2.00;83.70;;;;;;4975457;28;20026;-83
2021/01/02 00:13:40;;;;;;;30.65;18.02;;;1.90;84.00;;;;;;4975421;28;20026;-82
2021/01/02 00:16:32;;;;;;;29.40;17.60;;;2.00;84.00;;;;;;4978384;28;20062;-83
2021/01/02 00:19:24;;;;;;;28.42;17.70;;;1.90;84.10;;;;;;4997743;28;20054;-80
2021/01/02 00:22:09;;;;;;;32.53;18.42;;;1.90;84.20;;;;;;4980675;28;20030;-83
2021/01/02 00:24:51;;;;;;;32.85;19.10;;;2.00;84.20;;;;;;4976384;28;20029;-84
2021/01/02 00:27:47;;;;;;;27.40;16.52;;;2.00;84.10;;;;;;4975799;28;20026;-79
2021/01/02 00:30:33;;;;;;;32.40;18.77;;;2.00;84.00;;;;;;4935672;28;20045;-84
2021/01/02 00:33:02;;;;;;;33.97;19.42;;;1.90;84.00;;;;;;4975527;28;20097;-84
2021/01/02 00:35:28;;;;;;;32.33;18.75;;;1.90;84.50;;;;;;4975271;28;20026;-84
2021/01/02 00:38:05;;;;;;;30.23;17.77;;;1.90;84.80;;;;;;4975055;28;20026;-79
2021/01/02 00:40:34;;;;;;;36.05;20.50;;;1.90;84.80;;;;;;4975485;28;20030;-83
2021/01/02 00:42:59;;;;;;;38.85;22.13;;;2.00;84.50;;;;;;4974922;28;20038;-82
2021/01/02 00:45:27;;;;;;;38.53;21.83;;;1.80;84.50;;;;;;4974963;28;20027;-82
2021/01/02 00:47:53;;;;;;;38.00;21.75;;;1.80;85.00;;;;;;4973892;28;20015;-83
2021/01/02 00:50:21;;;;;;;39.38;22.70;;;1.80;85.20;;;;;;4974656;28;20033;-83
2021/01/02 00:52:50;;;;;;;40.28;22.90;;;1.80;85.20;;;;;;4974958;28;20034;-82
2021/01/02 00:55:24;;;;;;;38.78;21.77;;;1.70;85.40;;;;;;4974587;28;20109;-82
2021/01/02 00:57:50;;;;;;;37.30;21.33;;;1.70;85.70;;;;;;4974372;28;20182;-81
2021/01/02 01:00:20;;;;;;;38.58;22.55;;;1.80;85.70;;;;;;4957067;28;20054;-83
2021/01/02 01:02:56;;;;;;;35.15;21.35;;;1.90;85.60;;;;;;4974596;28;20026;-81
2021/01/02 01:05:22;;;;;;;38.15;21.23;;;1.90;85.40;;;;;;4975094;28;20045;-84
2021/01/02 01:07:53;;;;;;;40.70;22.80;;;1.90;85.30;;;;;;4974589;28;20053;-84
2021/01/02 01:10:28;;;;;;;34.55;20.95;;;2.00;84.90;;;;;;4974594;28;20030;-82
2021/01/02 01:12:59;;;;;;;36.60;21.67;;;2.00;84.60;;;;;;4974964;28;20338;-82
2021/01/02 01:15:25;;;;;;;35.35;19.85;;;2.00;84.40;;;;;;4957596;28;20483;-82
2021/01/02 01:18:13;;;;;;;37.72;20.85;;;2.00;84.40;;;;;;4976058;28;20460;-81
2021/01/02 01:20:47;;;;;;;36.65;21.25;;;2.00;84.10;;;;;;4976047;28;20035;-83
2021/01/02 01:23:35;;;;;;;33.43;19.97;;;2.00;84.10;;;;;;4958721;28;20388;-82
2021/01/02 01:26:35;;;;;;;41.72;20.55;;;2.00;84.00;;;;;;4977002;28;20294;-81
2021/01/02 01:29:01;;;;;;;36.13;20.92;;;1.90;84.10;;;;;;4983742;28;20027;-83
2021/01/02 01:31:45;;;;;;;34.03;19.98;;;2.00;83.90;;;;;;4980166;28;20050;-83
2021/01/02 01:34:20;;;;;;;39.53;21.70;;;1.80;84.00;;;;;;4977135;28;20034;-82
2021/01/02 01:36:47;;;;;;;34.40;21.33;;;1.80;84.20;;;;;;4982237;28;20026;-82
2021/01/02 01:39:13;;;;;;;34.42;20.52;;;1.80;84.30;;;;;;4979884;28;20533;-85
2021/01/02 01:41:45;;;;;;;38.72;20.65;;;1.70;84.40;;;;;;4976804;28;20031;-80
2021/01/02 01:44:35;;;;;;;38.05;22.13;;;1.60;84.40;;;;;;4983767;28;20023;-81
2021/01/02 01:47:12;;;;;;;37.05;21.67;;;1.60;84.70;;;;;;4975975;28;20030;-80
2021/01/02 01:49:55;;;;;;;40.35;23.38;;;1.50;85.10;;;;;;4978750;28;20050;-82
2021/01/02 01:52:51;;;;;;;39.47;22.02;;;1.40;85.60;;;;;;4977447;28;20030;-82
2021/01/02 01:55:55;;;;;;;39.25;22.40;;;1.30;86.00;;;;;;4974977;28;20055;-76
2021/01/02 01:58:45;;;;;;;39.03;21.52;;;1.40;86.10;;;;;;4971793;28;20054;-75
2021/01/02 02:01:20;;;;;;;41.50;22.08;;;1.50;85.90;;;;;;4976965;28;20114;-73
2021/01/02 02:04:36;;;;;;;42.50;22.70;;;1.40;85.70;;;;;;4977395;28;20546;-76
2021/01/02 02:07:13;;;;;;;48.65;24.55;;;1.40;86.00;;;;;;4944024;28;20047;-74
2021/01/02 02:09:41;;;;;;;44.25;23.42;;;1.50;86.20;;;;;;4977245;28;20014;-75
2021/01/02 02:12:19;;;;;;;44.00;23.40;;;1.50;86.10;;;;;;4977174;28;20479;-78
2021/01/02 02:14:57;;;;;;;43.72;23.40;;;1.60;85.80;;;;;;4977487;28;20144;-75
2021/01/02 02:17:25;;;;;;;42.22;22.75;;;1.60;85.30;;;;;;4977233;28;20023;-77
2021/01/02 02:19:57;;;;;;;41.35;22.52;;;1.60;85.20;;;;;;4978095;28;20124;-74
2021/01/02 02:22:27;;;;;;;40.85;23.05;;;1.70;85.30;;;;;;4983434;28;20015;-75
2021/01/02 02:24:54;;;;;;;39.20;21.45;;;1.70;84.90;;;;;;4982888;28;20115;-74
2021/01/02 02:27:27;;;;;;;36.13;20.40;;;1.70;84.90;;;;;;4977214;28;20050;-77
2021/01/02 02:30:16;;;;;;;40.35;22.17;;;1.70;84.40;;;;;;4977433;28;20030;-77
2021/01/02 02:32:47;;;;;;;36.90;20.73;;;1.50;84.70;;;;;;4977024;28;20055;-77
2021/01/02 02:35:20;;;;;;;41.08;22.67;;;1.40;84.80;;;;;;4977042;28;20022;-75
2021/01/02 02:37:51;;;;;;;45.83;22.60;;;1.30;85.50;;;;;;4976909;28;20098;-75
2021/01/02 02:40:19;;;;;;;38.38;21.70;;;1.20;85.80;;;;;;4976749;28;20027;-74
2021/01/02 02:43:00;;;;;;;36.92;20.08;;;1.20;86.20;;;;;;4985870;28;20367;-74
2021/01/02 02:45:31;;;;;;;36.03;20.65;;;1.20;86.30;;;;;;4979080;28;20395;-74
2021/01/02 02:48:00;;;;;;;40.03;21.67;;;1.20;86.30;;;;;;4976552;28;20027;-74
2021/01/02 02:50:27;;;;;;;38.83;21.52;;;1.10;86.40;;;;;;4976344;28;20026;-76
2021/01/02 02:53:03;;;;;;;38.90;20.70;;;1.00;86.70;;;;;;4976383;28;20086;-76
2021/01/02 02:55:29;;;;;;;40.65;22.23;;;1.10;87.00;;;;;;4976441;28;20050;-76
2021/01/02 02:57:55;;;;;;;41.20;22.00;;;1.00;86.80;;;;;;4976456;28;20058;-76
2021/01/02 03:00:21;;;;;;;37.35;21.10;;;1.00;86.90;;;;;;4976333;28;20034;-76
2021/01/02 03:02:49;;;;;;;37.92;21.08;;;1.00;87.10;;;;;;4976135;28;20031;-74
2021/01/02 03:05:16;;;;;;;39.80;23.10;;;1.00;87.10;;;;;;4976149;28;20023;-77
2021/01/02 03:07:44;;;;;;;40.10;22.27;;;1.00;87.00;;;;;;4976120;28;20514;-77
2021/01/02 03:10:11;;;;;;;40.58;22.02;;;1.00;87.10;;;;;;4976288;28;20089;-76
2021/01/02 03:12:44;;;;;;;41.25;22.30;;;1.00;87.20;;;;;;4975194;28;20112;-77
2021/01/02 03:15:12;;;;;;;39.20;22.15;;;0.90;87.40;;;;;;4975998;28;20376;-73
2021/01/02 03:17:39;;;;;;;40.08;21.67;;;0.90;87.70;;;;;;4975942;28;20023;-77
2021/01/02 03:20:05;;;;;;;38.67;21.40;;;0.90;87.90;;;;;;4976045;28;20105;-74
2021/01/02 03:22:31;;;;;;;37.75;21.83;;;0.90;87.90;;;;;;4975934;28;20023;-74
2021/01/02 03:24:57;;;;;;;38.60;21.98;;;0.80;87.80;;;;;;4975715;28;20356;-76
2021/01/02 03:27:22;;;;;;;44.53;23.83;;;0.80;88.00;;;;;;4975897;28;20496;-76
2021/01/02 03:29:48;;;;;;;41.90;22.48;;;0.80;88.10;;;;;;4976201;28;20038;-78
2021/01/02 03:32:14;;;;;;;41.42;22.48;;;0.90;88.20;;;;;;4975704;28;20509;-77
2021/01/02 03:34:40;;;;;;;42.53;23.55;;;0.90;88.20;;;;;;4975666;28;20123;-79
2021/01/02 03:37:07;;;;;;;40.58;20.83;;;0.90;87.70;;;;;;4975638;28;20019;-75
2021/01/02 03:39:33;;;;;;;36.88;21.08;;;1.00;87.80;;;;;;4975441;28;20054;-76
2021/01/02 03:41:59;;;;;;;38.28;23.13;;;1.00;87.60;;;;;;4975593;28;20102;-74
2021/01/02 03:44:24;;;;;;;50.90;28.25;;;1.00;87.30;;;;;;4975362;28;20050;-77
2021/01/02 03:46:50;;;;;;;156.73;73.85;;;1.00;87.00;;;;;;4975484;28;20023;-73
2021/01/02 03:49:15;;;;;;;78.45;39.50;;;0.90;87.20;;;;;;4975328;28;20514;-77
2021/01/02 03:51:41;;;;;;;46.45;24.75;;;0.90;87.60;;;;;;4975365;28;20502;-74
2021/01/02 03:54:06;;;;;;;42.47;22.17;;;0.90;87.70;;;;;;4975247;28;20035;-77
2021/01/02 03:56:32;;;;;;;42.67;24.23;;;0.80;87.70;;;;;;4975217;28;20030;-75
2021/01/02 03:58:57;;;;;;;41.47;23.52;;;0.80;87.80;;;;;;4975166;28;20078;-72
2021/01/02 04:01:23;;;;;;;40.92;23.67;;;0.70;88.20;;;;;;4975082;28;20109;-76
2021/01/02 04:03:48;;;;;;;40.65;22.48;;;0.70;88.50;;;;;;4974981;28;20490;-78
2021/01/02 04:06:22;;;;;;;48.05;24.80;;;0.60;88.50;;;;;;4974765;28;20054;-77
2021/01/02 04:08:48;;;;;;;44.47;23.30;;;0.60;88.90;;;;;;4974803;28;20530;-75
2021/01/02 04:11:13;;;;;;;41.42;22.70;;;0.60;89.00;;;;;;4975352;28;20054;-75
2021/01/02 04:13:39;;;;;;;43.05;23.83;;;0.60;89.00;;;;;;4986265;28;20059;-73
2021/01/02 04:16:04;;;;;;;47.80;23.98;;;0.60;89.20;;;;;;4977023;28;20066;-76
2021/01/02 04:18:30;;;;;;;49.10;24.85;;;0.60;89.40;;;;;;4957519;28;20034;-78
2021/01/02 04:20:55;;;;;;;44.30;23.70;;;0.60;89.50;;;;;;4974767;28;20027;-78
2021/01/02 04:23:21;;;;;;;42.17;23.13;;;0.60;89.30;;;;;;4974637;28;20105;-73
2021/01/02 04:25:47;;;;;;;44.42;23.95;;;0.60;89.20;;;;;;4974698;28;20027;-74
2021/01/02 04:28:13;;;;;;;44.35;25.17;;;0.60;89.20;;;;;;4974629;28;20035;-74
2021/01/02 04:30:38;;;;;;;45.25;24.65;;;0.60;89.20;;;;;;4974567;28;20027;-76
2021/01/02 04:33:04;;;;;;;46.45;24.17;;;0.60;89.10;;;;;;4974551;28;20522;-74
2021/01/02 04:35:30;;;;;;;46.60;24.52;;;0.70;89.10;;;;;;4974389;28;20023;-74
2021/01/02 04:37:55;;;;;;;45.03;24.25;;;0.70;88.80;;;;;;4974522;28;20166;-73
2021/01/02 04:40:21;;;;;;;46.88;23.00;;;0.70;88.80;;;;;;4974402;28;20035;-73
2021/01/02 04:42:48;;;;;;;43.38;23.63;;;0.80;88.80;;;;;;4974583;28;20106;-76
2021/01/02 04:45:14;;;;;;;45.80;23.73;;;0.70;88.80;;;;;;4974500;28;20161;-75
2021/01/02 04:47:44;;;;;;;45.33;25.05;;;0.80;88.80;;;;;;4974585;28;20050;-76
2021/01/02 04:50:10;;;;;;;46.10;23.52;;;0.90;88.50;;;;;;4974617;28;20030;-76
2021/01/02 04:52:36;;;;;;;46.42;23.73;;;0.90;88.20;;;;;;4974282;28;20030;-76
2021/01/02 04:55:04;;;;;;;46.40;24.23;;;0.90;87.90;;;;;;4974267;28;20478;-74
2021/01/02 04:57:34;;;;;;;52.70;26.65;;;0.90;88.00;;;;;;4974060;28;20030;-75
2021/01/02 05:00:01;;;;;;;45.22;24.13;;;0.90;87.90;;;;;;4974488;28;20035;-78
2021/01/02 05:02:29;;;;;;;47.95;25.17;;;0.90;88.10;;;;;;4974226;28;20447;-76
2021/01/02 05:04:55;;;;;;;49.42;24.65;;;0.90;88.10;;;;;;4974351;28;20023;-75
2021/01/02 05:07:25;;;;;;;51.78;27.00;;;0.90;88.10;;;;;;4974102;28;20408;-76
2021/01/02 05:09:51;;;;;;;52.38;26.88;;;1.00;88.00;;;;;;4974456;28;20077;-76
2021/01/02 05:12:30;;;;;;;49.83;26.20;;;0.90;88.00;;;;;;4974489;28;20483;-75
2021/01/02 05:15:02;;;;;;;52.03;26.85;;;0.90;88.10;;;;;;4974411;28;20019;-77
2021/01/02 05:17:29;;;;;;;55.17;28.05;;;0.90;88.20;;;;;;4974172;28;20487;-74
2021/01/02 05:20:07;;;;;;;50.88;25.85;;;0.90;88.20;;;;;;4974313;28;20034;-76
2021/01/02 05:22:34;;;;;;;50.22;26.42;;;0.90;88.30;;;;;;4974282;28;20420;-75
2021/01/02 05:25:14;;;;;;;51.35;27.23;;;1.00;88.10;;;;;;4974151;28;20030;-76
2021/01/02 05:27:48;;;;;;;47.55;25.33;;;1.00;87.90;;;;;;4973903;28;20031;-75
2021/01/02 05:30:22;;;;;;;47.45;25.35;;;1.00;87.60;;;;;;4956682;28;20542;-75
2021/01/02 05:33:08;;;;;;;53.47;26.98;;;1.00;87.80;;;;;;4974088;28;20023;-76
2021/01/02 05:35:42;;;;;;;45.83;24.42;;;1.00;87.60;;;;;;4976462;28;20102;-77
2021/01/02 05:38:13;;;;;;;50.72;25.83;;;1.00;87.60;;;;;;4977781;28;20034;-75
2021/01/02 05:40:41;;;;;;;45.28;25.20;;;1.10;87.60;;;;;;4977993;28;20023;-75
2021/01/02 05:43:07;;;;;;;54.97;27.60;;;1.10;87.40;;;;;;4977813;28;20094;-80
2021/01/02 05:45:33;;;;;;;44.85;24.77;;;1.10;87.40;;;;;;4977803;28;20038;-75
2021/01/02 05:48:22;;;;;;;51.78;27.92;;;1.10;87.30;;;;;;4977644;28;20038;-75
2021/01/02 05:50:50;;;;;;;48.35;25.63;;;1.00;87.10;;;;;;4967949;28;20097;-77
2021/01/02 05:53:21;;;;;;;48.03;26.92;;;1.00;87.30;;;;;;4977645;28;20110;-79
2021/01/02 05:55:55;;;;;;;50.17;27.77;;;1.10;87.50;;;;;;4977545;28;20015;-75
2021/01/02 05:58:21;;;;;;;51.75;26.05;;;1.00;88.00;;;;;;4977373;28;20490;-79
2021/01/02 06:00:46;;;;;;;47.22;24.65;;;1.00;87.20;;;;;;4977487;28;20027;-74
2021/01/02 06:03:23;;;;;;;51.05;27.55;;;0.90;87.40;;;;;;4977473;28;20029;-76
2021/01/02 06:05:59;;;;;;;51.55;26.23;;;0.90;88.30;;;;;;4977642;28;20037;-75
2021/01/02 06:08:37;;;;;;;51.28;25.58;;;0.90;87.50;;;;;;4977222;28;20090;-75
2021/01/02 06:11:06;;;;;;;47.35;24.65;;;0.90;87.70;;;;;;4977286;28;20026;-74
2021/01/02 06:13:37;;;;;;;49.58;26.20;;;0.90;87.60;;;;;;4977367;28;20058;-74
2021/01/02 06:16:05;;;;;;;49.13;24.90;;;1.00;87.50;;;;;;4977422;28;20026;-77
2021/01/02 06:18:35;;;;;;;50.60;24.85;;;1.00;87.20;;;;;;4977530;28;20038;-78
2021/01/02 06:21:02;;;;;;;52.33;25.92;;;1.10;87.30;;;;;;4980943;28;20023;-77
2021/01/02 06:23:28;;;;;;;47.70;26.23;;;1.10;86.90;;;;;;4983343;28;20070;-76
2021/01/02 06:25:55;;;;;;;45.97;25.00;;;1.20;86.70;;;;;;4983142;28;20018;-76
2021/01/02 06:28:21;;;;;;;44.70;23.88;;;1.10;86.50;;;;;;4984943;28;20113;-74
2021/01/02 06:30:47;;;;;;;45.05;24.35;;;1.20;86.30;;;;;;4983878;28;20023;-74
2021/01/02 06:33:17;;;;;;;51.05;25.02;;;1.20;87.00;;;;;;4984313;28;20031;-74
2021/01/02 06:35:43;;;;;;;41.33;23.08;;;1.30;86.20;;;;;;4991433;28;20050;-76
2021/01/02 06:38:13;;;;;;;43.75;22.70;;;1.30;86.00;;;;;;4997413;28;20031;-75
2021/01/02 06:40:45;;;;;;;47.30;24.55;;;1.30;85.80;;;;;;4981967;28;20194;-75
2021/01/02 06:43:13;;;;;;;39.78;22.52;;;1.30;85.60;;;;;;4977183;28;20559;-74
2021/01/02 06:45:38;;;;;;;42.95;23.13;;;1.40;85.50;;;;;;4976717;28;20037;-74
2021/01/02 06:48:13;;;;;;;40.80;21.50;;;1.40;85.40;;;;;;4959444;28;20019;-73
2021/01/02 06:50:59;;;;;;;40.88;21.90;;;1.40;85.10;;;;;;4976595;28;20034;-73
2021/01/02 06:53:30;;;;;;;;;;;1.50;84.90;;;;;;4976918;28;20027;-73
2021/01/02 06:56:06;;;;;;;41.47;22.38;;;1.50;84.60;;;;;;4976450;28;19913;-73
2021/01/02 06:58:36;;;;;;;40.97;21.73;;;1.40;84.50;;;;;;4976144;28;20026;-73
2021/01/02 07:01:07;;;;;;;42.55;23.33;;;1.40;84.70;;;;;;4976393;28;20033;-74
2021/01/02 07:03:41;;;;;;;43.55;23.20;;;1.40;84.80;;;;;;4976050;28;20054;-74
2021/01/02 07:08:55;;;;;;;45.72;23.85;;;1.50;84.80;;;;;;4976259;28;20043;-74
2021/01/02 07:11:37;;;;;;;46.53;23.27;;;1.50;84.40;;;;;;4958867;28;20027;-74
2021/01/02 07:14:12;;;;;;;41.83;22.77;;;1.40;84.40;;;;;;4976177;28;20027;-74
2021/01/02 07:16:43;;;;;;;41.00;22.13;;;1.40;84.40;;;;;;4976087;28;20026;-74
2021/01/02 07:19:27;;;;;;;41.22;22.63;;;1.50;84.50;;;;;;4976366;28;20027;-74
2021/01/02 07:22:16;;;;;;;47.40;24.35;;;1.50;84.50;;;;;;4978182;28;20508;-74
2021/01/02 07:24:46;;;;;;;43.08;22.20;;;1.60;84.30;;;;;;4977847;28;20091;-76
2021/01/02 07:27:25;;;;;;;38.92;20.85;;;1.50;84.10;;;;;;4977742;28;20097;-73
2021/01/02 07:30:04;;;;;;;43.85;23.02;;;1.60;83.80;;;;;;4976560;28;20062;-73
2021/01/02 07:32:49;;;;;;;40.83;22.88;;;1.50;83.70;;;;;;4976048;28;20511;-74
2021/01/02 07:35:16;;;;;;;43.83;22.35;;;1.50;83.70;;;;;;4976355;28;20033;-73
2021/01/02 07:37:44;;;;;;;43.40;24.27;;;1.50;83.80;;;;;;4976085;28;20031;-78
2021/01/02 07:40:13;;;;;;;42.80;23.33;;;1.50;83.90;;;;;;4976019;28;20058;-75
2021/01/02 07:42:48;;;;;;;39.75;21.95;;;1.50;84.00;;;;;;4976060;28;20023;-76
2021/01/02 07:45:16;;;;;;;42.13;21.77;;;1.50;84.00;;;;;;4975746;28;20038;-77
2021/01/02 07:47:47;;;;;;;40.85;22.58;;;1.50;83.90;;;;;;4975303;28;20038;-77
2021/01/02 07:50:15;;;;;;;43.13;22.83;;;1.60;83.70;;;;;;4975380;28;20027;-80
2021/01/02 07:52:54;;;;;;;40.58;22.88;;;1.60;83.50;;;;;;4975331;28;20119;-76
2021/01/02 07:55:37;;;;;;;41.45;21.42;;;1.50;83.40;;;;;;4975292;28;20124;-77
2021/01/02 07:58:03;;;;;;;43.78;22.75;;;1.60;83.50;;;;;;4957882;28;20034;-77
2021/01/02 08:00:30;;;;;;;42.00;21.95;;;1.50;83.50;;;;;;4976158;28;20388;-75
2021/01/02 08:03:15;;;;;;;44.55;22.83;;;1.60;83.70;;;;;;4958781;28;20117;-76
2021/01/02 08:05:41;;;;;;;42.05;21.70;;;1.60;83.60;;;;;;4975573;28;20146;-73
2021/01/02 08:08:07;;;;;;;37.30;21.08;;;1.60;83.40;;;;;;4957409;28;20116;-77
2021/01/02 08:10:33;;;;;;;39.30;21.80;;;1.60;83.20;;;;;;4973704;28;20082;-76
2021/01/02 08:13:02;;;;;;;40.90;23.15;;;1.60;83.00;;;;;;4957635;28;20499;-75
2021/01/02 08:15:29;;;;;;;40.38;21.95;;;1.60;83.00;;;;;;4957490;28;20026;-77
2021/01/02 08:18:01;;;;;;;39.75;21.35;;;1.60;83.80;;;;;;4957508;28;20031;-75
2021/01/02 08:20:26;;;;;;;39.30;22.75;;;1.50;83.10;;;;;;4974880;28;20019;-75
2021/01/02 08:22:53;;;;;;;41.05;22.95;;;1.50;83.20;;;;;;4957257;28;20037;-75
2021/01/02 08:25:19;;;;;;;41.78;22.25;;;1.40;83.30;;;;;;4957140;28;20078;-76
2021/01/02 08:27:47;;;;;;;39.67;21.02;;;1.40;83.50;;;;;;4974568;28;20030;-79
2021/01/02 08:30:13;;;;;;;40.58;22.30;;;1.50;83.70;;;;;;4975247;28;20104;-79
2021/01/02 08:32:44;;;;;;;38.22;21.02;;;1.50;83.70;;;;;;4958773;28;20022;-81
2021/01/02 08:35:20;;;;;;;38.28;21.55;;;1.50;83.70;;;;;;4957329;28;20022;-75
2021/01/02 08:37:47;;;;;;;49.67;20.85;;;1.60;83.60;;;;;;4974896;28;20033;-73
2021/01/02 08:40:15;;;;;;;58.30;22.77;;;1.70;85.00;;;;;;4974368;28;20094;-74
2021/01/02 08:42:43;;;;;;;43.53;22.40;;;2.80;94.50;;;;;;4974312;28;20428;-73
2021/01/02 08:45:10;;;;;;;36.88;20.20;;;3.50;92.90;;;;;;4956635;28;20023;-73
2021/01/02 08:47:36;;;;;;;33.83;19.27;;;4.20;84.90;;;;;;4956722;28;20031;-74
2021/01/02 08:50:11;;;;;;;30.27;17.38;;;4.60;78.90;;;;;;4956795;28;20034;-76
2021/01/02 08:52:37;;;;;;;31.63;19.35;;;5.10;74.80;;;;;;4974372;28;20027;-77
2021/01/02 08:55:08;;;;;;;29.35;18.15;;;5.40;71.80;;;;;;4972797;28;20034;-75
2021/01/02 08:57:48;;;;;;;29.98;18.25;;;5.70;68.80;;;;;;4972859;28;20069;-76
2021/01/02 09:00:31;;;;;;;28.88;17.27;;;5.80;67.80;;;;;;4974135;28;20391;-74
2021/01/02 09:03:06;;;;;;;28.63;17.98;;;5.80;66.90;;;;;;4974339;28;20430;-75
2021/01/02 09:05:37;;;;;;;26.60;17.27;;;5.70;66.30;;;;;;4974020;28;20026;-75
2021/01/02 09:08:10;;;;;;;25.58;16.05;;;5.80;66.00;;;;;;4972768;28;20054;-73
2021/01/02 09:10:43;;;;;;;28.83;16.17;;;5.80;66.60;;;;;;4976871;28;20113;-73
2021/01/02 09:13:19;;;;;;;26.25;16.02;;;5.90;65.40;;;;;;4977830;28;20027;-74
2021/01/02 09:16:07;;;;;;;29.80;17.48;;;5.70;65.30;;;;;;4978067;28;20033;-76
2021/01/02 09:19:48;;;;;;;29.08;17.38;;;5.40;64.90;;;;;;4978849;28;20034;-78
2021/01/02 09:22:06;;;;;;;24.92;15.73;;;4.80;65.30;;;;;;4968471;28;20039;-76
2021/01/02 09:25:29;;;;;;;27.10;16.85;;;4.20;67.10;;;;;;4962948;28;20031;-77
2021/01/02 09:28:24;;;;;;;30.33;19.35;;;3.80;68.80;;;;;;4976557;28;20448;-81
2021/01/02 09:30:59;;;;;;;31.63;18.23;;;3.40;70.80;;;;;;4927826;28;20051;-81
2021/01/02 09:33:35;;;;;;;;;;;;;;;;;;;;;
2021/01/02 09:36:04;;;;;;;30.23;18.20;;;2.90;73.70;;;;;;4976522;28;20525;-78
2021/01/02 09:38:40;;;;;;;28.73;18.00;;;2.80;74.40;;;;;;4960984;28;20051;-80
2021/01/02 09:44:13;;;;;;;29.48;18.40;;;2.60;76.00;;;;;;4965167;28;20101;-77
2021/01/02 09:46:38;;;;;;;33.70;19.25;;;2.50;76.70;;;;;;4960927;28;20081;-78
2021/01/02 09:49:04;;;;;;;30.30;18.10;;;2.40;77.00;;;;;;4960072;28;20031;-77
2021/01/02 09:51:30;;;;;;;33.08;17.52;;;2.40;77.30;;;;;;4976208;28;20030;-75
2021/01/02 09:53:55;;;;;;;28.50;17.60;;;2.40;77.20;;;;;;4975800;28;20375;-77
2021/01/02 09:56:21;;;;;;;31.83;18.55;;;2.40;77.30;;;;;;4976882;28;20023;-80
2021/01/02 09:58:46;;;;;;;29.42;18.33;;;2.40;77.30;;;;;;4976435;28;20038;-78
2021/01/02 10:01:16;;;;;;;33.50;18.70;;;2.40;77.40;;;;;;4976709;28;20172;-76
2021/01/02 10:03:42;;;;;;;31.42;18.50;;;2.40;77.50;;;;;;4976975;28;20030;-79
2021/01/02 10:06:07;;;;;;;27.60;16.23;;;2.30;77.60;;;;;;4974608;28;20517;-75
2021/01/02 10:08:33;;;;;;;29.88;18.08;;;2.20;77.50;;;;;;4957542;29;20117;-76
2021/01/02 10:10:59;;;;;;;30.02;17.40;;;2.20;77.80;;;;;;4940683;29;20035;-75
2021/01/02 10:13:24;;;;;;;27.20;15.85;;;2.10;77.90;;;;;;4940713;29;20027;-79
2021/01/02 10:15:50;;;;;;;32.40;19.58;;;2.10;78.20;;;;;;4957642;29;20094;-76
2021/01/02 10:18:16;;;;;;;34.17;18.85;;;2.00;78.20;;;;;;4924695;29;20038;-77
2021/01/02 10:20:42;;;;;;;30.13;18.88;;;2.00;78.50;;;;;;4941087;29;20225;-75
2021/01/02 10:23:09;;;;;;;32.83;18.58;;;2.10;78.60;;;;;;4940021;29;20468;-75
2021/01/02 10:25:34;;;;;;;31.60;18.58;;;2.10;78.50;;;;;;4941875;29;20382;-77
2021/01/02 10:28:00;;;;;;;30.52;17.83;;;2.10;78.60;;;;;;4940366;29;20117;-77
2021/01/02 10:30:26;;;;;;;32.40;18.58;;;2.00;78.60;;;;;;4955469;28;20050;-75
2021/01/02 10:32:52;;;;;;;30.75;17.60;;;1.90;78.70;;;;;;4939462;29;20075;-76
2021/01/02 10:35:18;;;;;;;29.27;17.30;;;1.90;78.80;;;;;;4956714;29;20371;-75
2021/01/02 10:37:47;;;;;;;35.88;19.45;;;1.90;78.80;;;;;;4939946;29;20115;-74
2021/01/02 10:40:13;;;;;;;31.58;18.73;;;2.00;78.80;;;;;;4957982;29;20042;-81
2021/01/02 10:42:40;;;;;;;29.13;16.85;;;1.90;78.70;;;;;;4942178;29;20095;-78
2021/01/02 10:45:08;;;;;;;27.10;16.20;;;1.90;78.80;;;;;;4941170;29;20027;-76
2021/01/02 10:47:34;;;;;;;28.38;16.83;;;1.90;78.70;;;;;;4940269;29;20030;-81
2021/01/02 10:50:00;;;;;;;30.83;17.73;;;1.90;78.60;;;;;;4940105;29;20027;-81
2021/01/02 10:52:27;;;;;;;27.55;16.20;;;1.80;78.40;;;;;;4940153;29;20035;-84
2021/01/02 10:54:53;;;;;;;29.67;17.52;;;1.90;78.60;;;;;;4957284;29;20030;-82
2021/01/02 10:57:27;;;;;;;27.48;16.02;;;1.90;78.60;;;;;;4957485;29;20027;-84
2021/01/02 10:59:54;;;;;;;29.92;17.98;;;1.90;78.60;;;;;;4957408;29;20031;-84
2021/01/02 11:02:21;;;;;;;30.35;17.60;;;1.90;78.70;;;;;;4957403;29;20027;-82
2021/01/02 11:04:47;;;;;;;29.25;16.63;;;1.90;78.60;;;;;;4957476;29;20432;-84
2021/01/02 11:07:13;;;;;;;27.33;15.85;;;1.90;78.50;;;;;;4967591;28;20090;-81
2021/01/02 11:09:39;;;;;;;26.17;15.20;;;2.00;78.50;;;;;;4976567;28;20054;-84
2021/01/02 11:12:06;;;;;;;25.55;15.35;;;2.00;77.90;;;;;;4976081;28;20131;-82
2021/01/02 11:14:32;;;;;;;25.77;15.40;;;2.00;77.50;;;;;;4976213;28;20030;-81
2021/01/02 11:16:57;;;;;;;26.45;15.75;;;2.10;77.50;;;;;;4976129;28;20026;-81
2021/01/02 11:19:25;;;;;;;27.52;16.30;;;2.10;77.10;;;;;;4958571;28;20033;-81
2021/01/02 11:21:55;;;;;;;24.60;14.55;;;2.10;76.70;;;;;;4975973;28;20106;-82
2021/01/02 11:24:24;;;;;;;24.50;14.57;;;2.20;76.70;;;;;;4974636;28;20040;-74
2021/01/02 11:26:52;;;;;;;23.25;13.50;;;2.20;76.60;;;;;;4975677;28;20023;-74
2021/01/02 11:29:19;;;;;;;27.73;14.18;;;2.30;76.40;;;;;;4975285;28;20090;-77
2021/01/02 11:31:45;;;;;;;20.48;12.80;;;2.30;76.00;;;;;;4975180;28;20030;-78
2021/01/02 11:34:12;;;;;;;24.05;14.10;;;2.30;75.60;;;;;;4975588;28;20487;-75
2021/01/02 11:36:39;;;;;;;17.90;11.10;;;2.10;75.00;;;;;;4975600;28;20034;-75
2021/01/02 11:39:07;;;;;;;20.55;12.38;;;2.10;75.00;;;;;;4974977;28;20043;-76
2021/01/02 11:41:35;;;;;;;19.02;12.45;;;2.10;76.00;;;;;;4975573;28;20023;-77
2021/01/02 11:44:02;;;;;;;21.90;13.13;;;2.20;75.30;;;;;;4975187;28;20499;-76
2021/01/02 11:46:33;;;;;;;19.48;12.18;;;2.20;75.10;;;;;;4975072;28;20035;-76
2021/01/02 11:48:58;;;;;;;17.08;11.30;;;2.20;74.40;;;;;;4957918;28;20122;-75
2021/01/02 11:51:25;;;;;;;20.48;11.73;;;2.10;73.90;;;;;;4975523;28;20531;-76
2021/01/02 11:53:51;;;;;;;19.13;12.63;;;2.00;74.30;;;;;;4957809;28;20049;-77
2021/01/02 11:56:22;;;;;;;20.90;12.07;;;2.00;74.50;;;;;;4957293;28;20053;-75
2021/01/02 11:58:50;;;;;;;25.45;14.52;;;1.90;74.80;;;;;;4972519;28;20578;-76
2021/01/02 12:01:16;;;;;;;24.15;14.90;;;1.90;75.50;;;;;;4957765;28;20037;-76
2021/01/02 12:03:42;;;;;;;31.33;17.10;;;1.80;75.90;;;;;;4974967;28;20105;-75
2021/01/02 12:06:08;;;;;;;24.85;14.80;;;1.80;76.10;;;;;;4957630;28;20030;-75
2021/01/02 12:08:33;;;;;;;26.42;16.35;;;1.80;76.30;;;;;;4975002;28;20103;-75
2021/01/02 12:10:59;;;;;;;23.33;13.68;;;1.90;76.70;;;;;;4974676;28;20489;-76
2021/01/02 12:13:25;;;;;;;26.65;15.65;;;1.70;76.60;;;;;;4974807;28;20035;-78
2021/01/02 12:15:51;;;;;;;25.80;15.05;;;1.70;77.00;;;;;;4957467;28;20030;-74
2021/01/02 12:18:17;;;;;;;21.98;13.75;;;1.70;77.20;;;;;;4957613;28;20030;-78
2021/01/02 12:20:42;;;;;;;24.50;14.57;;;1.70;77.30;;;;;;4974855;28;20031;-76
2021/01/02 12:23:09;;;;;;;25.58;14.80;;;1.80;77.10;;;;;;4957653;28;20057;-79
2021/01/02 12:25:36;;;;;;;25.17;14.60;;;1.80;76.90;;;;;;4974707;28;20101;-77
2021/01/02 12:28:02;;;;;;;25.58;14.40;;;1.80;76.60;;;;;;4957253;28;20114;-75
2021/01/02 12:30:28;;;;;;;28.90;17.05;;;1.80;76.50;;;;;;4957153;28;20050;-77
2021/01/02 12:32:58;;;;;;;30.95;17.55;;;1.80;76.10;;;;;;4974287;28;20023;-77
2021/01/02 12:35:25;;;;;;;28.00;15.43;;;1.80;75.90;;;;;;4957035;28;20058;-74
2021/01/02 12:37:50;;;;;;;25.92;14.80;;;1.80;75.70;;;;;;4956776;28;20030;-73
2021/01/02 12:40:17;;;;;;;21.98;12.75;;;1.80;75.80;;;;;;4956565;28;20030;-76
2021/01/02 12:42:43;;;;;;;22.95;13.13;;;1.80;75.80;;;;;;4957094;28;20073;-76
2021/01/02 12:45:12;;;;;;;22.52;13.98;;;1.70;75.60;;;;;;4956880;28;20122;-75
2021/01/02 12:47:37;;;;;;;24.30;14.02;;;1.60;75.60;;;;;;4956949;28;20085;-72
2021/01/02 12:50:05;;;;;;;22.25;13.85;;;1.50;76.30;;;;;;4953918;28;20019;-77
2021/01/02 12:52:31;;;;;;;21.33;12.43;;;1.50;76.70;;;;;;4955802;28;20130;-73
2021/01/02 12:54:57;;;;;;;21.35;11.90;;;1.50;77.00;;;;;;4973986;28;20110;-73
2021/01/02 12:57:23;;;;;;;17.92;12.05;;;1.60;77.00;;;;;;4940605;28;20101;-73
2021/01/02 12:59:55;;;;;;;18.98;11.65;;;1.70;76.90;;;;;;4956544;28;20037;-73
2021/01/02 13:02:21;;;;;;;22.63;13.80;;;1.70;76.80;;;;;;4954401;28;20027;-74